sensor_id;sensor_type;location;lat;lon;timestamp;P1;durP1;ratioP1;P2;durP2;ratioP2
69779;SDS011;57052;55.602;38.096;2023-12-29T00:01:51;6.22;;;2.28;;
69779;SDS011;57052;55.602;38.096;2023-12-29T00:04:17;4.60;;;2.20;;
69779;SDS011;57052;55.602;38.096;2023-12-29T00:06:42;4.65;;;1.80;;
69779;SDS011;57052;55.602;38.096;2023-12-29T00:09:08;4.20;;;2.00;;
69779;SDS011;57052;55.602;38.096;2023-12-29T00:11:34;4.97;;;2.25;;
69779;SDS011;57052;55.602;38.096;2023-12-29T00:14:00;8.43;;;2.40;;
69779;SDS011;57052;55.602;38.096;2023-12-29T00:16:27;5.20;;;2.20;;
69779;SDS011;57052;55.602;38.096;2023-12-29T00:18:53;6.03;;;2.13;;
69779;SDS011;57052;55.602;38.096;2023-12-29T00:21:18;5.53;;;2.28;;
69779;SDS011;57052;55.602;38.096;2023-12-29T00:23:44;5.88;;;2.25;;
69779;SDS011;57052;55.602;38.096;2023-12-29T00:26:10;5.50;;;2.40;;
69779;SDS011;57052;55.602;38.096;2023-12-29T00:28:36;4.38;;;2.10;;
69779;SDS011;57052;55.602;38.096;2023-12-29T00:31:06;4.85;;;1.98;;
69779;SDS011;57052;55.602;38.096;2023-12-29T00:33:32;7.00;;;2.50;;
69779;SDS011;57052;55.602;38.096;2023-12-29T00:35:57;4.78;;;2.20;;
69779;SDS011;57052;55.602;38.096;2023-12-29T00:38:24;5.60;;;2.10;;
69779;SDS011;57052;55.602;38.096;2023-12-29T00:40:51;4.68;;;2.15;;
69779;SDS011;57052;55.602;38.096;2023-12-29T00:43:17;5.70;;;2.38;;
69779;SDS011;57052;55.602;38.096;2023-12-29T00:45:42;6.47;;;2.50;;
69779;SDS011;57052;55.602;38.096;2023-12-29T00:48:08;5.65;;;2.22;;
69779;SDS011;57052;55.602;38.096;2023-12-29T00:50:34;4.75;;;2.28;;
69779;SDS011;57052;55.602;38.096;2023-12-29T00:53:00;6.82;;;2.10;;
69779;SDS011;57052;55.602;38.096;2023-12-29T00:55:26;4.47;;;1.95;;
69779;SDS011;57052;55.602;38.096;2023-12-29T00:57:52;4.20;;;1.80;;
69779;SDS011;57052;55.602;38.096;2023-12-29T01:00:17;5.38;;;2.20;;
69779;SDS011;57052;55.602;38.096;2023-12-29T01:02:43;4.30;;;1.92;;
69779;SDS011;57052;55.602;38.096;2023-12-29T01:05:09;4.07;;;1.80;;
69779;SDS011;57052;55.602;38.096;2023-12-29T01:07:34;4.05;;;1.75;;
69779;SDS011;57052;55.602;38.096;2023-12-29T01:10:00;5.53;;;1.90;;
69779;SDS011;57052;55.602;38.096;2023-12-29T01:12:29;4.30;;;2.28;;
69779;SDS011;57052;55.602;38.096;2023-12-29T01:14:54;3.15;;;1.85;;
69779;SDS011;57052;55.602;38.096;2023-12-29T01:17:20;4.75;;;1.77;;
69779;SDS011;57052;55.602;38.096;2023-12-29T01:19:47;4.00;;;1.88;;
69779;SDS011;57052;55.602;38.096;2023-12-29T01:22:13;4.88;;;2.00;;
69779;SDS011;57052;55.602;38.096;2023-12-29T01:24:38;4.15;;;2.00;;
69779;SDS011;57052;55.602;38.096;2023-12-29T01:27:04;4.25;;;2.22;;
69779;SDS011;57052;55.602;38.096;2023-12-29T01:29:30;4.93;;;2.15;;
69779;SDS011;57052;55.602;38.096;2023-12-29T01:31:56;5.05;;;1.77;;
69779;SDS011;57052;55.602;38.096;2023-12-29T01:34:21;5.78;;;2.00;;
69779;SDS011;57052;55.602;38.096;2023-12-29T01:36:47;3.42;;;1.70;;
69779;SDS011;57052;55.602;38.096;2023-12-29T01:39:13;4.65;;;2.22;;
69779;SDS011;57052;55.602;38.096;2023-12-29T01:41:38;5.05;;;1.98;;
69779;SDS011;57052;55.602;38.096;2023-12-29T01:44:15;5.43;;;2.10;;
69779;SDS011;57052;55.602;38.096;2023-12-29T01:46:44;5.78;;;1.80;;
69779;SDS011;57052;55.602;38.096;2023-12-29T01:49:12;5.10;;;2.25;;
69779;SDS011;57052;55.602;38.096;2023-12-29T01:51:41;5.72;;;2.05;;
69779;SDS011;57052;55.602;38.096;2023-12-29T01:54:08;6.25;;;2.05;;
69779;SDS011;57052;55.602;38.096;2023-12-29T01:56:36;4.53;;;1.88;;
69779;SDS011;57052;55.602;38.096;2023-12-29T01:59:02;4.20;;;2.03;;
69779;SDS011;57052;55.602;38.096;2023-12-29T02:01:29;4.55;;;2.10;;
69779;SDS011;57052;55.602;38.096;2023-12-29T02:03:56;4.45;;;1.85;;
69779;SDS011;57052;55.602;38.096;2023-12-29T02:06:22;4.00;;;1.92;;
69779;SDS011;57052;55.602;38.096;2023-12-29T02:08:50;5.00;;;2.17;;
69779;SDS011;57052;55.602;38.096;2023-12-29T02:11:16;3.55;;;1.75;;
69779;SDS011;57052;55.602;38.096;2023-12-29T02:13:43;3.35;;;1.67;;
69779;SDS011;57052;55.602;38.096;2023-12-29T02:16:22;3.50;;;1.70;;
69779;SDS011;57052;55.602;38.096;2023-12-29T02:18:55;4.00;;;1.85;;
69779;SDS011;57052;55.602;38.096;2023-12-29T02:21:25;3.97;;;1.80;;
69779;SDS011;57052;55.602;38.096;2023-12-29T02:23:51;4.20;;;2.03;;
69779;SDS011;57052;55.602;38.096;2023-12-29T02:26:16;5.00;;;1.90;;
69779;SDS011;57052;55.602;38.096;2023-12-29T02:28:49;5.95;;;2.60;;
69779;SDS011;57052;55.602;38.096;2023-12-29T02:31:22;5.55;;;2.20;;
69779;SDS011;57052;55.602;38.096;2023-12-29T02:33:52;6.30;;;2.45;;
69779;SDS011;57052;55.602;38.096;2023-12-29T02:36:20;5.13;;;2.30;;
69779;SDS011;57052;55.602;38.096;2023-12-29T02:38:48;7.32;;;2.50;;
69779;SDS011;57052;55.602;38.096;2023-12-29T02:41:13;5.00;;;2.20;;
69779;SDS011;57052;55.602;38.096;2023-12-29T02:43:40;6.07;;;2.20;;
69779;SDS011;57052;55.602;38.096;2023-12-29T02:46:06;6.13;;;2.20;;
69779;SDS011;57052;55.602;38.096;2023-12-29T02:48:31;5.10;;;1.80;;
69779;SDS011;57052;55.602;38.096;2023-12-29T02:50:57;5.70;;;2.05;;
69779;SDS011;57052;55.602;38.096;2023-12-29T02:53:23;4.18;;;1.92;;
69779;SDS011;57052;55.602;38.096;2023-12-29T02:55:48;3.80;;;1.90;;
69779;SDS011;57052;55.602;38.096;2023-12-29T02:58:14;4.53;;;1.80;;
69779;SDS011;57052;55.602;38.096;2023-12-29T03:00:40;3.75;;;1.77;;
69779;SDS011;57052;55.602;38.096;2023-12-29T03:03:05;5.13;;;1.83;;
69779;SDS011;57052;55.602;38.096;2023-12-29T03:05:31;4.90;;;1.67;;
69779;SDS011;57052;55.602;38.096;2023-12-29T03:07:57;4.30;;;1.95;;
69779;SDS011;57052;55.602;38.096;2023-12-29T03:10:22;5.13;;;2.90;;
69779;SDS011;57052;55.602;38.096;2023-12-29T03:12:48;4.18;;;2.30;;
69779;SDS011;57052;55.602;38.096;2023-12-29T03:15:14;5.13;;;2.33;;
69779;SDS011;57052;55.602;38.096;2023-12-29T03:17:40;4.50;;;2.22;;
69779;SDS011;57052;55.602;38.096;2023-12-29T03:20:06;6.53;;;2.65;;
69779;SDS011;57052;55.602;38.096;2023-12-29T03:22:33;5.80;;;2.75;;
69779;SDS011;57052;55.602;38.096;2023-12-29T03:24:59;6.03;;;2.63;;
69779;SDS011;57052;55.602;38.096;2023-12-29T03:27:24;6.45;;;2.63;;
69779;SDS011;57052;55.602;38.096;2023-12-29T03:29:50;6.55;;;2.60;;
69779;SDS011;57052;55.602;38.096;2023-12-29T03:32:16;6.03;;;2.53;;
69779;SDS011;57052;55.602;38.096;2023-12-29T03:34:42;5.22;;;2.67;;
69779;SDS011;57052;55.602;38.096;2023-12-29T03:37:08;7.97;;;4.30;;
69779;SDS011;57052;55.602;38.096;2023-12-29T03:39:34;7.40;;;2.67;;
69779;SDS011;57052;55.602;38.096;2023-12-29T03:42:01;6.22;;;2.78;;
69779;SDS011;57052;55.602;38.096;2023-12-29T03:44:27;5.10;;;2.20;;
69779;SDS011;57052;55.602;38.096;2023-12-29T03:46:53;7.05;;;2.83;;
69779;SDS011;57052;55.602;38.096;2023-12-29T03:49:19;6.40;;;2.90;;
69779;SDS011;57052;55.602;38.096;2023-12-29T03:51:44;8.13;;;2.90;;
69779;SDS011;57052;55.602;38.096;2023-12-29T03:54:11;4.57;;;2.15;;
69779;SDS011;57052;55.602;38.096;2023-12-29T03:56:37;5.93;;;2.40;;
69779;SDS011;57052;55.602;38.096;2023-12-29T03:59:03;5.38;;;2.30;;
69779;SDS011;57052;55.602;38.096;2023-12-29T04:01:29;5.65;;;2.00;;
69779;SDS011;57052;55.602;38.096;2023-12-29T04:03:58;4.63;;;2.20;;
69779;SDS011;57052;55.602;38.096;2023-12-29T04:06:24;4.72;;;2.22;;
69779;SDS011;57052;55.602;38.096;2023-12-29T04:08:49;4.53;;;2.03;;
69779;SDS011;57052;55.602;38.096;2023-12-29T04:11:15;6.55;;;2.10;;
69779;SDS011;57052;55.602;38.096;2023-12-29T04:13:41;5.80;;;2.17;;
69779;SDS011;57052;55.602;38.096;2023-12-29T04:16:06;4.60;;;2.25;;
69779;SDS011;57052;55.602;38.096;2023-12-29T04:18:32;6.15;;;2.38;;
69779;SDS011;57052;55.602;38.096;2023-12-29T04:20:58;6.75;;;2.65;;
69779;SDS011;57052;55.602;38.096;2023-12-29T04:23:23;7.10;;;2.83;;
69779;SDS011;57052;55.602;38.096;2023-12-29T04:25:49;6.35;;;3.35;;
69779;SDS011;57052;55.602;38.096;2023-12-29T04:28:15;6.18;;;3.15;;
69779;SDS011;57052;55.602;38.096;2023-12-29T04:30:41;7.25;;;3.00;;
69779;SDS011;57052;55.602;38.096;2023-12-29T04:33:06;6.55;;;2.60;;
69779;SDS011;57052;55.602;38.096;2023-12-29T04:35:32;5.57;;;2.78;;
69779;SDS011;57052;55.602;38.096;2023-12-29T04:37:58;6.30;;;2.78;;
69779;SDS011;57052;55.602;38.096;2023-12-29T04:40:24;10.27;;;3.33;;
69779;SDS011;57052;55.602;38.096;2023-12-29T04:42:49;5.82;;;2.50;;
69779;SDS011;57052;55.602;38.096;2023-12-29T04:45:15;4.93;;;2.17;;
69779;SDS011;57052;55.602;38.096;2023-12-29T04:47:41;7.47;;;2.65;;
69779;SDS011;57052;55.602;38.096;2023-12-29T04:50:07;8.93;;;3.22;;
69779;SDS011;57052;55.602;38.096;2023-12-29T04:52:33;6.40;;;2.22;;
69779;SDS011;57052;55.602;38.096;2023-12-29T04:54:59;5.15;;;2.47;;
69779;SDS011;57052;55.602;38.096;2023-12-29T04:57:25;5.70;;;2.25;;
69779;SDS011;57052;55.602;38.096;2023-12-29T04:59:51;6.10;;;2.15;;
69779;SDS011;57052;55.602;38.096;2023-12-29T05:02:16;6.50;;;2.63;;
69779;SDS011;57052;55.602;38.096;2023-12-29T05:04:44;5.68;;;2.08;;
69779;SDS011;57052;55.602;38.096;2023-12-29T05:07:11;6.05;;;2.53;;
69779;SDS011;57052;55.602;38.096;2023-12-29T05:09:37;7.35;;;2.60;;
69779;SDS011;57052;55.602;38.096;2023-12-29T05:12:02;5.80;;;2.58;;
69779;SDS011;57052;55.602;38.096;2023-12-29T05:14:28;7.65;;;2.90;;
69779;SDS011;57052;55.602;38.096;2023-12-29T05:16:54;5.00;;;2.53;;
69779;SDS011;57052;55.602;38.096;2023-12-29T05:19:20;6.78;;;3.10;;
69779;SDS011;57052;55.602;38.096;2023-12-29T05:21:46;4.70;;;2.50;;
69779;SDS011;57052;55.602;38.096;2023-12-29T05:24:14;6.40;;;2.95;;
69779;SDS011;57052;55.602;38.096;2023-12-29T05:26:40;7.80;;;3.15;;
69779;SDS011;57052;55.602;38.096;2023-12-29T05:29:06;8.55;;;3.50;;
69779;SDS011;57052;55.602;38.096;2023-12-29T05:31:32;9.32;;;3.22;;
69779;SDS011;57052;55.602;38.096;2023-12-29T05:33:58;6.43;;;3.10;;
69779;SDS011;57052;55.602;38.096;2023-12-29T05:36:23;6.72;;;3.17;;
69779;SDS011;57052;55.602;38.096;2023-12-29T05:38:49;13.55;;;3.47;;
69779;SDS011;57052;55.602;38.096;2023-12-29T05:41:15;7.00;;;3.03;;
69779;SDS011;57052;55.602;38.096;2023-12-29T05:43:41;7.85;;;3.60;;
69779;SDS011;57052;55.602;38.096;2023-12-29T05:46:10;10.68;;;3.15;;
69779;SDS011;57052;55.602;38.096;2023-12-29T05:48:39;8.93;;;3.67;;
69779;SDS011;57052;55.602;38.096;2023-12-29T05:51:07;8.15;;;2.75;;
69779;SDS011;57052;55.602;38.096;2023-12-29T05:53:39;6.77;;;2.80;;
69779;SDS011;57052;55.602;38.096;2023-12-29T05:56:05;6.65;;;2.80;;
69779;SDS011;57052;55.602;38.096;2023-12-29T05:58:31;7.47;;;2.97;;
69779;SDS011;57052;55.602;38.096;2023-12-29T06:00:57;7.93;;;3.10;;
69779;SDS011;57052;55.602;38.096;2023-12-29T06:03:26;7.25;;;2.90;;
69779;SDS011;57052;55.602;38.096;2023-12-29T06:05:51;7.97;;;3.15;;
69779;SDS011;57052;55.602;38.096;2023-12-29T06:08:17;8.00;;;3.33;;
69779;SDS011;57052;55.602;38.096;2023-12-29T06:10:43;8.48;;;2.88;;
69779;SDS011;57052;55.602;38.096;2023-12-29T06:13:09;6.32;;;3.20;;
69779;SDS011;57052;55.602;38.096;2023-12-29T06:15:34;7.75;;;3.00;;
69779;SDS011;57052;55.602;38.096;2023-12-29T06:18:01;10.82;;;3.72;;
69779;SDS011;57052;55.602;38.096;2023-12-29T06:20:27;8.02;;;3.15;;
69779;SDS011;57052;55.602;38.096;2023-12-29T06:22:53;6.68;;;2.80;;
69779;SDS011;57052;55.602;38.096;2023-12-29T06:25:20;8.48;;;2.90;;
69779;SDS011;57052;55.602;38.096;2023-12-29T06:27:46;9.18;;;3.17;;
69779;SDS011;57052;55.602;38.096;2023-12-29T06:30:11;10.63;;;3.58;;
69779;SDS011;57052;55.602;38.096;2023-12-29T06:32:37;8.32;;;3.50;;
69779;SDS011;57052;55.602;38.096;2023-12-29T06:35:04;6.95;;;2.90;;
69779;SDS011;57052;55.602;38.096;2023-12-29T06:37:31;5.78;;;2.80;;
69779;SDS011;57052;55.602;38.096;2023-12-29T06:39:57;7.53;;;3.42;;
69779;SDS011;57052;55.602;38.096;2023-12-29T06:42:24;6.47;;;3.08;;
69779;SDS011;57052;55.602;38.096;2023-12-29T06:44:49;6.82;;;3.08;;
69779;SDS011;57052;55.602;38.096;2023-12-29T06:47:15;9.35;;;3.80;;
69779;SDS011;57052;55.602;38.096;2023-12-29T06:49:41;7.18;;;2.75;;
69779;SDS011;57052;55.602;38.096;2023-12-29T06:52:07;5.70;;;2.70;;
69779;SDS011;57052;55.602;38.096;2023-12-29T06:54:35;6.25;;;3.00;;
69779;SDS011;57052;55.602;38.096;2023-12-29T06:57:01;7.78;;;3.33;;
69779;SDS011;57052;55.602;38.096;2023-12-29T06:59:27;8.13;;;3.67;;
69779;SDS011;57052;55.602;38.096;2023-12-29T07:01:53;9.38;;;4.18;;
69779;SDS011;57052;55.602;38.096;2023-12-29T07:04:18;9.88;;;4.10;;
69779;SDS011;57052;55.602;38.096;2023-12-29T07:06:44;12.88;;;4.85;;
69779;SDS011;57052;55.602;38.096;2023-12-29T07:09:10;9.73;;;3.75;;
69779;SDS011;57052;55.602;38.096;2023-12-29T07:11:36;10.63;;;3.80;;
69779;SDS011;57052;55.602;38.096;2023-12-29T07:14:02;9.80;;;3.90;;
69779;SDS011;57052;55.602;38.096;2023-12-29T07:16:28;9.27;;;3.80;;
69779;SDS011;57052;55.602;38.096;2023-12-29T07:18:54;8.25;;;3.30;;
69779;SDS011;57052;55.602;38.096;2023-12-29T07:21:20;7.10;;;3.15;;
69779;SDS011;57052;55.602;38.096;2023-12-29T07:23:46;8.93;;;3.38;;
69779;SDS011;57052;55.602;38.096;2023-12-29T07:26:11;7.85;;;3.05;;
69779;SDS011;57052;55.602;38.096;2023-12-29T07:28:37;8.25;;;3.55;;
69779;SDS011;57052;55.602;38.096;2023-12-29T07:31:03;9.68;;;3.80;;
69779;SDS011;57052;55.602;38.096;2023-12-29T07:33:29;9.85;;;4.50;;
69779;SDS011;57052;55.602;38.096;2023-12-29T07:35:56;7.15;;;3.15;;
69779;SDS011;57052;55.602;38.096;2023-12-29T07:38:21;6.90;;;3.15;;
69779;SDS011;57052;55.602;38.096;2023-12-29T07:40:48;7.55;;;3.38;;
69779;SDS011;57052;55.602;38.096;2023-12-29T07:43:14;8.45;;;3.22;;
69779;SDS011;57052;55.602;38.096;2023-12-29T07:45:40;9.35;;;3.42;;
69779;SDS011;57052;55.602;38.096;2023-12-29T07:48:05;7.78;;;3.38;;
69779;SDS011;57052;55.602;38.096;2023-12-29T07:50:31;8.25;;;3.47;;
69779;SDS011;57052;55.602;38.096;2023-12-29T07:52:58;10.07;;;3.90;;
69779;SDS011;57052;55.602;38.096;2023-12-29T07:55:28;8.98;;;3.85;;
69779;SDS011;57052;55.602;38.096;2023-12-29T07:57:54;8.32;;;3.58;;
69779;SDS011;57052;55.602;38.096;2023-12-29T08:00:20;9.63;;;4.10;;
69779;SDS011;57052;55.602;38.096;2023-12-29T08:02:47;12.50;;;4.70;;
69779;SDS011;57052;55.602;38.096;2023-12-29T08:05:12;8.32;;;3.45;;
69779;SDS011;57052;55.602;38.096;2023-12-29T08:07:40;8.63;;;3.70;;
69779;SDS011;57052;55.602;38.096;2023-12-29T08:10:06;9.25;;;4.25;;
69779;SDS011;57052;55.602;38.096;2023-12-29T08:12:32;7.65;;;3.33;;
69779;SDS011;57052;55.602;38.096;2023-12-29T08:14:59;8.20;;;3.53;;
69779;SDS011;57052;55.602;38.096;2023-12-29T08:17:26;10.93;;;3.80;;
69779;SDS011;57052;55.602;38.096;2023-12-29T08:19:52;8.73;;;3.70;;
69779;SDS011;57052;55.602;38.096;2023-12-29T08:22:19;9.95;;;3.83;;
69779;SDS011;57052;55.602;38.096;2023-12-29T08:24:45;7.72;;;3.42;;
69779;SDS011;57052;55.602;38.096;2023-12-29T08:27:14;8.70;;;3.63;;
69779;SDS011;57052;55.602;38.096;2023-12-29T08:29:47;7.93;;;3.25;;
69779;SDS011;57052;55.602;38.096;2023-12-29T08:32:13;10.75;;;3.42;;
69779;SDS011;57052;55.602;38.096;2023-12-29T08:34:38;9.32;;;3.67;;
69779;SDS011;57052;55.602;38.096;2023-12-29T08:37:04;7.63;;;3.83;;
69779;SDS011;57052;55.602;38.096;2023-12-29T08:39:31;7.85;;;3.85;;
69779;SDS011;57052;55.602;38.096;2023-12-29T08:41:56;7.78;;;3.15;;
69779;SDS011;57052;55.602;38.096;2023-12-29T08:44:22;6.45;;;3.28;;
69779;SDS011;57052;55.602;38.096;2023-12-29T08:46:48;8.95;;;3.42;;
69779;SDS011;57052;55.602;38.096;2023-12-29T08:49:14;9.35;;;3.30;;
69779;SDS011;57052;55.602;38.096;2023-12-29T08:51:40;7.72;;;3.13;;
69779;SDS011;57052;55.602;38.096;2023-12-29T08:54:06;8.23;;;3.42;;
69779;SDS011;57052;55.602;38.096;2023-12-29T08:56:32;8.13;;;3.45;;
69779;SDS011;57052;55.602;38.096;2023-12-29T08:58:58;7.60;;;3.45;;
69779;SDS011;57052;55.602;38.096;2023-12-29T09:01:23;9.40;;;4.05;;
69779;SDS011;57052;55.602;38.096;2023-12-29T09:03:49;8.57;;;3.67;;
69779;SDS011;57052;55.602;38.096;2023-12-29T09:06:15;9.40;;;4.00;;
69779;SDS011;57052;55.602;38.096;2023-12-29T09:08:41;10.43;;;4.22;;
69779;SDS011;57052;55.602;38.096;2023-12-29T09:11:07;8.68;;;3.92;;
69779;SDS011;57052;55.602;38.096;2023-12-29T09:13:32;10.27;;;3.70;;
69779;SDS011;57052;55.602;38.096;2023-12-29T09:15:58;11.07;;;3.92;;
69779;SDS011;57052;55.602;38.096;2023-12-29T09:18:24;9.25;;;4.53;;
69779;SDS011;57052;55.602;38.096;2023-12-29T09:20:50;9.90;;;4.13;;
69779;SDS011;57052;55.602;38.096;2023-12-29T09:23:16;8.90;;;3.92;;
69779;SDS011;57052;55.602;38.096;2023-12-29T09:25:42;10.73;;;4.68;;
69779;SDS011;57052;55.602;38.096;2023-12-29T09:28:08;9.10;;;4.15;;
69779;SDS011;57052;55.602;38.096;2023-12-29T09:30:34;8.57;;;3.85;;
69779;SDS011;57052;55.602;38.096;2023-12-29T09:33:00;7.97;;;4.22;;
69779;SDS011;57052;55.602;38.096;2023-12-29T09:35:25;9.23;;;4.00;;
69779;SDS011;57052;55.602;38.096;2023-12-29T09:37:51;8.43;;;4.10;;
69779;SDS011;57052;55.602;38.096;2023-12-29T09:40:17;9.85;;;4.00;;
69779;SDS011;57052;55.602;38.096;2023-12-29T09:42:44;11.73;;;4.32;;
69779;SDS011;57052;55.602;38.096;2023-12-29T09:45:11;9.98;;;3.85;;
69779;SDS011;57052;55.602;38.096;2023-12-29T09:47:39;8.63;;;3.75;;
69779;SDS011;57052;55.602;38.096;2023-12-29T09:50:07;7.45;;;3.78;;
69779;SDS011;57052;55.602;38.096;2023-12-29T09:52:35;7.32;;;3.38;;
69779;SDS011;57052;55.602;38.096;2023-12-29T09:55:09;10.90;;;3.80;;
69779;SDS011;57052;55.602;38.096;2023-12-29T09:57:37;10.10;;;3.80;;
69779;SDS011;57052;55.602;38.096;2023-12-29T10:00:03;10.00;;;3.85;;
69779;SDS011;57052;55.602;38.096;2023-12-29T10:02:31;8.73;;;4.13;;
69779;SDS011;57052;55.602;38.096;2023-12-29T10:04:57;10.82;;;3.75;;
69779;SDS011;57052;55.602;38.096;2023-12-29T10:07:29;8.32;;;3.38;;
69779;SDS011;57052;55.602;38.096;2023-12-29T10:09:57;9.18;;;3.88;;
69779;SDS011;57052;55.602;38.096;2023-12-29T10:12:24;13.65;;;4.80;;
69779;SDS011;57052;55.602;38.096;2023-12-29T10:23:10;13.80;;;4.50;;
69779;SDS011;57052;55.602;38.096;2023-12-29T10:25:38;11.38;;;4.47;;
69779;SDS011;57052;55.602;38.096;2023-12-29T10:28:05;8.50;;;4.35;;
69779;SDS011;57052;55.602;38.096;2023-12-29T10:30:32;9.05;;;3.85;;
69779;SDS011;57052;55.602;38.096;2023-12-29T10:32:57;11.85;;;4.30;;
69779;SDS011;57052;55.602;38.096;2023-12-29T10:35:25;7.95;;;3.72;;
69779;SDS011;57052;55.602;38.096;2023-12-29T10:37:51;8.70;;;4.05;;
69779;SDS011;57052;55.602;38.096;2023-12-29T10:40:18;10.05;;;4.10;;
69779;SDS011;57052;55.602;38.096;2023-12-29T10:42:54;11.07;;;4.47;;
69779;SDS011;57052;55.602;38.096;2023-12-29T10:45:21;11.73;;;4.80;;
69779;SDS011;57052;55.602;38.096;2023-12-29T10:47:50;13.10;;;5.65;;
69779;SDS011;57052;55.602;38.096;2023-12-29T10:50:16;11.15;;;4.40;;
69779;SDS011;57052;55.602;38.096;2023-12-29T10:52:42;10.65;;;4.68;;
69779;SDS011;57052;55.602;38.096;2023-12-29T10:55:09;12.07;;;4.75;;
69779;SDS011;57052;55.602;38.096;2023-12-29T10:57:37;9.52;;;4.38;;
69779;SDS011;57052;55.602;38.096;2023-12-29T11:00:04;9.38;;;5.00;;
69779;SDS011;57052;55.602;38.096;2023-12-29T11:02:32;12.57;;;5.07;;
69779;SDS011;57052;55.602;38.096;2023-12-29T11:05:05;13.52;;;4.75;;
69779;SDS011;57052;55.602;38.096;2023-12-29T11:10:03;13.77;;;5.50;;
69779;SDS011;57052;55.602;38.096;2023-12-29T11:12:31;15.52;;;5.47;;
69779;SDS011;57052;55.602;38.096;2023-12-29T11:14:59;16.98;;;5.68;;
69779;SDS011;57052;55.602;38.096;2023-12-29T11:17:29;16.75;;;6.80;;
69779;SDS011;57052;55.602;38.096;2023-12-29T11:19:57;20.08;;;7.05;;
69779;SDS011;57052;55.602;38.096;2023-12-29T11:22:30;17.13;;;5.95;;
69779;SDS011;57052;55.602;38.096;2023-12-29T11:24:57;16.80;;;6.53;;
69779;SDS011;57052;55.602;38.096;2023-12-29T11:27:31;13.45;;;5.55;;
69779;SDS011;57052;55.602;38.096;2023-12-29T11:30:00;16.73;;;6.32;;
69779;SDS011;57052;55.602;38.096;2023-12-29T11:32:37;12.30;;;5.78;;
69779;SDS011;57052;55.602;38.096;2023-12-29T11:35:26;13.77;;;5.88;;
69779;SDS011;57052;55.602;38.096;2023-12-29T11:38:07;13.68;;;4.82;;
69779;SDS011;57052;55.602;38.096;2023-12-29T11:40:59;16.05;;;5.57;;
69779;SDS011;57052;55.602;38.096;2023-12-29T11:43:34;12.82;;;5.15;;
69779;SDS011;57052;55.602;38.096;2023-12-29T11:46:00;13.38;;;4.85;;
69779;SDS011;57052;55.602;38.096;2023-12-29T11:51:29;16.73;;;5.53;;
69779;SDS011;57052;55.602;38.096;2023-12-29T11:54:04;13.38;;;5.70;;
69779;SDS011;57052;55.602;38.096;2023-12-29T11:56:33;16.15;;;5.88;;
69779;SDS011;57052;55.602;38.096;2023-12-29T11:59:16;15.40;;;6.05;;
69779;SDS011;57052;55.602;38.096;2023-12-29T12:01:52;12.80;;;5.80;;
69779;SDS011;57052;55.602;38.096;2023-12-29T12:04:41;13.23;;;6.20;;
69779;SDS011;57052;55.602;38.096;2023-12-29T12:07:07;13.75;;;6.78;;
69779;SDS011;57052;55.602;38.096;2023-12-29T12:09:42;18.23;;;7.35;;
69779;SDS011;57052;55.602;38.096;2023-12-29T12:12:09;20.23;;;7.93;;
69779;SDS011;57052;55.602;38.096;2023-12-29T12:14:45;22.20;;;8.10;;
69779;SDS011;57052;55.602;38.096;2023-12-29T12:17:27;15.55;;;6.95;;
69779;SDS011;57052;55.602;38.096;2023-12-29T12:19:57;17.98;;;6.35;;
69779;SDS011;57052;55.602;38.096;2023-12-29T12:22:30;16.40;;;7.50;;
69779;SDS011;57052;55.602;38.096;2023-12-29T12:24:58;19.33;;;7.07;;
69779;SDS011;57052;55.602;38.096;2023-12-29T12:27:28;18.95;;;7.65;;
69779;SDS011;57052;55.602;38.096;2023-12-29T12:29:54;17.27;;;6.60;;
69779;SDS011;57052;55.602;38.096;2023-12-29T12:32:25;15.50;;;6.50;;
69779;SDS011;57052;55.602;38.096;2023-12-29T12:34:51;14.38;;;6.53;;
69779;SDS011;57052;55.602;38.096;2023-12-29T12:37:27;17.30;;;6.95;;
69779;SDS011;57052;55.602;38.096;2023-12-29T12:39:54;17.35;;;6.97;;
69779;SDS011;57052;55.602;38.096;2023-12-29T12:42:20;21.40;;;7.40;;
69779;SDS011;57052;55.602;38.096;2023-12-29T12:44:48;17.15;;;7.43;;
69779;SDS011;57052;55.602;38.096;2023-12-29T12:50:12;12.85;;;6.13;;
69779;SDS011;57052;55.602;38.096;2023-12-29T12:52:39;14.48;;;6.65;;
69779;SDS011;57052;55.602;38.096;2023-12-29T12:55:08;14.65;;;6.90;;
69779;SDS011;57052;55.602;38.096;2023-12-29T12:57:36;17.20;;;6.43;;
69779;SDS011;57052;55.602;38.096;2023-12-29T13:00:03;18.60;;;6.88;;
69779;SDS011;57052;55.602;38.096;2023-12-29T13:02:31;16.73;;;6.68;;
69779;SDS011;57052;55.602;38.096;2023-12-29T13:04:57;16.85;;;6.97;;
69779;SDS011;57052;55.602;38.096;2023-12-29T13:07:23;15.65;;;6.45;;
69779;SDS011;57052;55.602;38.096;2023-12-29T13:09:50;15.20;;;6.95;;
69779;SDS011;57052;55.602;38.096;2023-12-29T13:12:25;14.68;;;6.76;;
69779;SDS011;57052;55.602;38.096;2023-12-29T13:14:51;15.60;;;6.72;;
69779;SDS011;57052;55.602;38.096;2023-12-29T13:17:17;14.77;;;6.30;;
69779;SDS011;57052;55.602;38.096;2023-12-29T13:19:43;16.38;;;6.45;;
69779;SDS011;57052;55.602;38.096;2023-12-29T13:22:10;16.00;;;6.18;;
69779;SDS011;57052;55.602;38.096;2023-12-29T13:24:44;15.10;;;6.35;;
69779;SDS011;57052;55.602;38.096;2023-12-29T13:27:10;16.30;;;5.82;;
69779;SDS011;57052;55.602;38.096;2023-12-29T13:29:40;13.05;;;5.38;;
69779;SDS011;57052;55.602;38.096;2023-12-29T13:32:09;17.63;;;5.85;;
69779;SDS011;57052;55.602;38.096;2023-12-29T13:42:35;11.45;;;4.72;;
69779;SDS011;57052;55.602;38.096;2023-12-29T13:45:05;9.13;;;4.55;;
69779;SDS011;57052;55.602;38.096;2023-12-29T13:47:34;11.05;;;4.20;;
69779;SDS011;57052;55.602;38.096;2023-12-29T13:50:02;10.02;;;4.70;;
69779;SDS011;57052;55.602;38.096;2023-12-29T13:52:28;9.75;;;4.90;;
69779;SDS011;57052;55.602;38.096;2023-12-29T13:54:54;11.35;;;5.25;;
69779;SDS011;57052;55.602;38.096;2023-12-29T13:57:33;10.70;;;5.15;;
69779;SDS011;57052;55.602;38.096;2023-12-29T14:03:02;9.80;;;4.68;;
69779;SDS011;57052;55.602;38.096;2023-12-29T14:08:26;10.13;;;4.90;;
69779;SDS011;57052;55.602;38.096;2023-12-29T14:10:59;10.43;;;4.70;;
69779;SDS011;57052;55.602;38.096;2023-12-29T14:13:25;9.05;;;4.28;;
69779;SDS011;57052;55.602;38.096;2023-12-29T14:15:52;13.98;;;5.35;;
69779;SDS011;57052;55.602;38.096;2023-12-29T14:20:46;16.17;;;4.97;;
69779;SDS011;57052;55.602;38.096;2023-12-29T14:23:12;11.38;;;5.03;;
69779;SDS011;57052;55.602;38.096;2023-12-29T14:25:38;11.60;;;4.70;;
69779;SDS011;57052;55.602;38.096;2023-12-29T14:28:13;10.32;;;4.47;;
69779;SDS011;57052;55.602;38.096;2023-12-29T14:30:41;12.95;;;4.72;;
69779;SDS011;57052;55.602;38.096;2023-12-29T14:33:07;12.98;;;5.18;;
69779;SDS011;57052;55.602;38.096;2023-12-29T14:35:33;12.20;;;5.45;;
69779;SDS011;57052;55.602;38.096;2023-12-29T14:37:59;11.02;;;4.30;;
69779;SDS011;57052;55.602;38.096;2023-12-29T14:40:25;12.15;;;4.45;;
69779;SDS011;57052;55.602;38.096;2023-12-29T14:42:51;10.82;;;4.43;;
69779;SDS011;57052;55.602;38.096;2023-12-29T14:45:17;12.23;;;4.63;;
69779;SDS011;57052;55.602;38.096;2023-12-29T14:47:43;12.18;;;4.93;;
69779;SDS011;57052;55.602;38.096;2023-12-29T14:50:11;10.65;;;4.88;;
69779;SDS011;57052;55.602;38.096;2023-12-29T14:52:37;13.10;;;5.43;;
69779;SDS011;57052;55.602;38.096;2023-12-29T14:55:03;11.38;;;4.97;;
69779;SDS011;57052;55.602;38.096;2023-12-29T14:57:31;11.07;;;4.90;;
69779;SDS011;57052;55.602;38.096;2023-12-29T14:59:57;13.10;;;5.30;;
69779;SDS011;57052;55.602;38.096;2023-12-29T15:02:22;11.27;;;4.97;;
69779;SDS011;57052;55.602;38.096;2023-12-29T15:04:48;12.88;;;5.60;;